Warning: Javascript must be enabled to use all the features on this page!


Page Loading - Please Wait...

Click to hideNews Bulletins

Peak Streamflow for the Nation

USGS 09260050 YAMPA RIVER AT DEERLODGE PARK, CO

Moffat County, Colorado
Hydrologic Unit Code 14050002
Latitude  40°27'06", Longitude 108°31'28" NAD27
Drainage area 7,931  square miles
Gage datum 5,600 feet above NGVD29
Output formats
Table
Graph
Tab-separated file
peakfq (watstore) format
Reselect output format
Water
Year
Date Gage
Height
(feet)
Stream-
flow
(cfs)
1982 1982-05-07 10.43 16,5005
1983 1983-05-31 13.22 23,4005
1984 1984-05-18 19.13 33,2005
1985 1985-05-06 12.88 18,5005
1986 1986-06-11 12.19 16,9005
1987 1987-05-02 8.01 7,9905
1988 1988-05-20 10.94 14,5005
1989 1989-04-28 6.84 6,1505
1990 1990-06-13 8.57 9,9605
1991 1991-06-03 9.02 9,9105
1992 1992-05-29 7.85 7,1205
1993 1993-05-23 12.00 16,4005
1994 1994-04-25 7.68 7,6705
1997 1997-06-04 13.39 20,4005
1998 1998-05-22 10.62 14,1005
1999 1999-06-01 10.92 14,3005
2000 2000-05-31 9.76 11,7005
2001 2001-05-18 8.79 9,7605
2002 2002-06-02 5.63 3,8105
2003 2003-06-03 11.86 16,2005
2004 2004-05-09 7.34 7,2905
2005 2005-05-24 11.20 15,6005
2006 2006-05-25 10.68 14,4005
2007 2007-05-16 7.74 8,4005
2008 2008-05-23 13.94 22,3005
2009 2009-05-27 11.70 16,3005
2010 2010-06-10 12.03 17,4005
2011 2011-06-09 16.21 27,4005
2012 2012-04-29 6.61 5,9805
2013 2013-05-18 8.54 10,1005
2014 2014-06-01 11.84 16,9005
2015 2015-05-08 8.64 10,4005
2016 2016-05-18 11.51 16,2005
2017 2017-05-15 9.07 11,2005,9
2018 2018-05-13 8.10 9,6305
2019 2019-06-23 11.37 16,0005
2020 2020-05-05 10.27 13,8005
2021 2021-05-24 6.32 5,3105
?
  Peak Streamflow Qualification Codes.